createdAt,value
2022-07-26T00:00:20.884Z,21.15
2022-07-26T00:02:53.027Z,21.12
2022-07-26T00:05:25.241Z,21.10
2022-07-26T00:08:10.827Z,21.08
2022-07-26T00:10:49.850Z,21.10
2022-07-26T00:13:22.414Z,21.11
2022-07-26T00:15:54.712Z,21.12
2022-07-26T00:18:27.411Z,21.03
2022-07-26T00:20:59.991Z,20.96
2022-07-26T00:23:32.843Z,20.91
2022-07-26T00:26:04.835Z,20.83
2022-07-26T00:28:37.663Z,20.70
2022-07-26T00:31:12.163Z,20.76
2022-07-26T00:33:44.261Z,20.75
2022-07-26T00:36:16.208Z,20.70
2022-07-26T00:38:48.338Z,20.75
2022-07-26T00:41:20.385Z,20.76
2022-07-26T00:44:00.302Z,20.78
2022-07-26T00:46:32.417Z,20.70
2022-07-26T00:49:04.526Z,20.72
2022-07-26T00:51:36.780Z,20.65
2022-07-26T00:54:08.878Z,20.64
2022-07-26T00:56:41.010Z,20.51
2022-07-26T00:59:13.083Z,20.46
2022-07-26T01:01:45.196Z,20.61
2022-07-26T01:04:17.462Z,20.47
2022-07-26T01:06:50.002Z,20.52
2022-07-26T01:09:22.064Z,20.58
2022-07-26T01:11:54.276Z,20.70
2022-07-26T01:14:26.853Z,20.67
2022-07-26T01:16:58.991Z,20.66
2022-07-26T01:19:31.143Z,20.57
2022-07-26T01:22:03.250Z,20.61
2022-07-26T01:24:35.337Z,20.53
2022-07-26T01:27:07.357Z,20.52
2022-07-26T01:29:39.662Z,20.57
2022-07-26T01:32:11.717Z,20.61
2022-07-26T01:34:44.020Z,20.53
2022-07-26T01:37:16.020Z,20.37
2022-07-26T01:39:48.091Z,20.36
2022-07-26T01:42:20.148Z,20.32
2022-07-26T01:44:52.154Z,20.16
2022-07-26T01:47:24.291Z,20.28
2022-07-26T01:49:56.279Z,20.25
2022-07-26T01:52:28.299Z,20.25
2022-07-26T01:55:00.418Z,20.29
2022-07-26T01:57:32.486Z,20.11
2022-07-26T02:00:07.307Z,20.14
2022-07-26T02:02:39.666Z,20.05
2022-07-26T02:05:12.704Z,20.17
2022-07-26T02:07:44.844Z,20.16
2022-07-26T02:10:16.956Z,20.14
2022-07-26T02:12:49.845Z,20.13
2022-07-26T02:15:21.829Z,20.12
2022-07-26T02:17:53.784Z,20.09
2022-07-26T02:20:25.809Z,19.97
2022-07-26T02:22:57.769Z,20.06
2022-07-26T02:25:30.157Z,20.11
2022-07-26T02:28:02.326Z,20.16
2022-07-26T02:30:34.410Z,20.20
2022-07-26T02:33:06.423Z,20.19
2022-07-26T02:35:38.787Z,20.05
2022-07-26T02:38:13.289Z,20.02
2022-07-26T02:40:45.472Z,19.99
2022-07-26T02:43:17.477Z,19.98
2022-07-26T02:46:01.425Z,20.04
2022-07-26T02:48:34.337Z,20.09
2022-07-26T02:51:07.209Z,20.09
2022-07-26T02:53:39.241Z,20.07
2022-07-26T02:56:11.242Z,20.10
2022-07-26T02:58:43.199Z,20.12
2022-07-26T03:01:15.366Z,20.12
2022-07-26T03:03:50.812Z,20.01
2022-07-26T03:06:23.363Z,20.06
2022-07-26T03:08:55.337Z,20.07
2022-07-26T03:11:28.190Z,20.09
2022-07-26T03:14:00.350Z,20.05
2022-07-26T03:16:34.084Z,20.01
2022-07-26T03:19:06.265Z,19.99
2022-07-26T03:21:38.288Z,19.89
2022-07-26T03:24:10.507Z,19.92
2022-07-26T03:26:42.879Z,19.81
2022-07-26T03:29:14.825Z,19.83
2022-07-26T03:31:46.890Z,19.75
2022-07-26T03:34:19.204Z,19.76
2022-07-26T03:36:51.409Z,19.72
2022-07-26T03:39:23.497Z,19.66
2022-07-26T03:41:55.501Z,19.66
2022-07-26T03:44:27.477Z,19.73
2022-07-26T03:46:59.760Z,19.70
2022-07-26T03:49:32.386Z,19.68
2022-07-26T03:52:04.548Z,19.71
2022-07-26T03:54:36.832Z,19.78
2022-07-26T03:57:08.838Z,19.60
2022-07-26T03:59:40.899Z,19.72
2022-07-26T04:02:13.422Z,19.78
2022-07-26T04:04:45.510Z,19.67
2022-07-26T04:07:18.493Z,19.70
2022-07-26T04:09:51.218Z,19.73
2022-07-26T04:12:23.203Z,19.62
2022-07-26T04:14:55.178Z,19.67
2022-07-26T04:17:27.177Z,19.74
2022-07-26T04:19:59.132Z,19.78
2022-07-26T04:22:31.890Z,19.75
2022-07-26T04:25:07.002Z,19.85
2022-07-26T04:27:39.094Z,19.86
2022-07-26T04:30:15.185Z,19.93
2022-07-26T04:32:47.573Z,19.80
2022-07-26T04:35:19.746Z,19.80
2022-07-26T04:37:51.730Z,19.77
2022-07-26T04:40:24.849Z,19.82
2022-07-26T04:43:15.494Z,19.79
2022-07-26T04:45:48.892Z,19.88
2022-07-26T04:48:20.977Z,19.90
2022-07-26T04:50:53.634Z,20.00
2022-07-26T04:53:25.705Z,20.13
2022-07-26T04:55:57.698Z,20.24
2022-07-26T04:58:29.658Z,20.15
2022-07-26T05:01:10.306Z,20.21
2022-07-26T05:03:42.942Z,20.26
2022-07-26T05:06:14.941Z,20.43
2022-07-26T05:08:47.027Z,20.44
2022-07-26T05:11:19.064Z,20.29
2022-07-26T05:13:51.324Z,20.30
2022-07-26T05:16:23.337Z,20.25
2022-07-26T05:18:55.439Z,20.36
2022-07-26T05:21:28.207Z,20.41
2022-07-26T05:24:00.486Z,20.47
2022-07-26T05:26:32.658Z,20.33
2022-07-26T05:29:04.710Z,20.01
2022-07-26T05:31:36.656Z,19.74
2022-07-26T05:34:09.126Z,19.49
2022-07-26T05:36:41.535Z,19.21
2022-07-26T05:39:16.035Z,19.06
2022-07-26T05:41:48.311Z,19.03
2022-07-26T05:44:20.347Z,18.96
2022-07-26T05:46:53.173Z,18.92
2022-07-26T05:49:26.178Z,18.74
2022-07-26T05:52:01.187Z,18.71
2022-07-26T05:54:33.483Z,18.70
2022-07-26T05:57:05.543Z,18.73
2022-07-26T05:59:37.620Z,18.71
2022-07-26T06:02:09.729Z,18.67
2022-07-26T06:04:41.829Z,18.67
2022-07-26T06:07:13.870Z,18.74
2022-07-26T06:09:45.983Z,18.54
2022-07-26T06:12:18.040Z,18.57
2022-07-26T06:14:51.028Z,18.60
2022-07-26T06:17:23.076Z,18.62
2022-07-26T06:19:55.118Z,18.51
2022-07-26T06:22:27.105Z,18.54
2022-07-26T06:24:59.100Z,18.55
2022-07-26T06:27:32.970Z,18.46
2022-07-26T06:30:07.814Z,18.58
2022-07-26T06:32:41.091Z,18.73
2022-07-26T06:35:14.402Z,18.77
2022-07-26T06:37:46.350Z,18.89
2022-07-26T06:40:18.397Z,18.67
2022-07-26T06:42:50.553Z,18.80
2022-07-26T06:45:22.635Z,18.83
2022-07-26T06:47:55.058Z,18.83
2022-07-26T06:50:28.433Z,18.80
2022-07-26T06:53:00.477Z,18.81
2022-07-26T06:55:32.574Z,18.84
2022-07-26T06:58:04.553Z,18.65
2022-07-26T07:00:36.548Z,18.57
2022-07-26T07:03:08.536Z,18.45
2022-07-26T07:05:40.602Z,18.42
2022-07-26T07:08:12.669Z,18.28
2022-07-26T07:10:45.127Z,18.35
2022-07-26T07:13:17.109Z,18.46
2022-07-26T07:15:49.256Z,18.46
2022-07-26T07:18:21.231Z,18.55
2022-07-26T07:20:53.301Z,18.89
2022-07-26T07:23:25.346Z,19.13
2022-07-26T07:25:57.404Z,19.21
2022-07-26T07:28:29.951Z,19.36
2022-07-26T07:31:01.953Z,19.51
2022-07-26T07:33:43.643Z,19.66
2022-07-26T07:36:25.023Z,19.50
2022-07-26T07:38:56.988Z,19.44
2022-07-26T07:41:29.044Z,19.46
2022-07-26T07:44:01.447Z,19.13
2022-07-26T07:46:34.370Z,18.68
2022-07-26T07:49:07.340Z,18.46
2022-07-26T07:51:39.866Z,18.63
2022-07-26T07:54:11.958Z,18.77
2022-07-26T07:56:44.293Z,18.93
2022-07-26T07:59:16.239Z,18.85
2022-07-26T08:01:48.266Z,18.84
2022-07-26T08:04:20.390Z,18.92
2022-07-26T08:06:52.496Z,19.05
2022-07-26T08:09:25.680Z,19.05
2022-07-26T08:12:00.843Z,18.97
2022-07-26T08:14:34.091Z,19.17
2022-07-26T08:17:06.163Z,19.42
2022-07-26T08:19:42.362Z,19.43
2022-07-26T08:22:14.575Z,19.74
2022-07-26T08:24:47.013Z,20.37
2022-07-26T08:27:19.455Z,20.76
2022-07-26T08:29:51.407Z,20.78
2022-07-26T08:32:23.363Z,20.94
2022-07-26T08:34:55.345Z,21.06
2022-07-26T08:37:47.852Z,21.23
2022-07-26T08:40:19.929Z,21.44
2022-07-26T08:42:57.278Z,21.32
2022-07-26T08:45:31.434Z,21.20
2022-07-26T08:48:19.112Z,21.56
2022-07-26T08:50:51.510Z,21.56
2022-07-26T08:53:23.786Z,21.72
2022-07-26T08:56:07.026Z,21.78
2022-07-26T08:58:40.980Z,21.41
2022-07-26T09:01:13.610Z,20.55
2022-07-26T09:03:46.115Z,19.99
2022-07-26T09:06:22.624Z,19.75
2022-07-26T09:09:11.161Z,19.53
2022-07-26T09:11:43.640Z,19.76
2022-07-26T09:14:15.715Z,20.14
2022-07-26T09:16:59.464Z,20.83
2022-07-26T09:19:31.535Z,21.34
2022-07-26T09:22:10.544Z,21.54
2022-07-26T09:24:45.947Z,22.05
2022-07-26T09:27:18.637Z,22.23
2022-07-26T09:29:54.039Z,22.41
2022-07-26T09:32:26.961Z,22.53
2022-07-26T09:35:45.879Z,22.64
2022-07-26T09:38:17.709Z,22.88
2022-07-26T09:40:51.342Z,22.92
2022-07-26T09:43:24.735Z,22.49
2022-07-26T09:46:06.212Z,22.55
2022-07-26T09:49:08.363Z,22.40
2022-07-26T09:51:38.501Z,22.09
2022-07-26T09:54:13.125Z,21.79
2022-07-26T09:56:51.726Z,21.60
2022-07-26T09:59:26.303Z,21.14
2022-07-26T10:02:00.678Z,20.44
2022-07-26T10:04:32.737Z,20.61
2022-07-26T10:07:05.001Z,20.74
2022-07-26T10:10:04.650Z,21.03
2022-07-26T10:12:36.855Z,21.38
2022-07-26T10:15:48.462Z,21.50
2022-07-26T10:18:39.214Z,21.30
2022-07-26T10:21:29.801Z,21.17
2022-07-26T10:24:03.774Z,21.69
2022-07-26T10:26:38.033Z,22.25
2022-07-26T10:29:26.681Z,22.55
2022-07-26T10:32:16.449Z,22.60
2022-07-26T10:34:48.657Z,22.46
2022-07-26T10:37:24.494Z,22.19
2022-07-26T10:40:20.027Z,22.26
2022-07-26T10:42:52.067Z,22.12
2022-07-26T10:45:24.188Z,21.47
2022-07-26T10:48:19.844Z,21.49
2022-07-26T10:50:54.680Z,21.43
2022-07-26T10:53:27.622Z,21.76
2022-07-26T10:56:01.575Z,21.99
2022-07-26T10:58:43.562Z,21.98
2022-07-26T11:01:16.394Z,21.68
2022-07-26T11:03:48.567Z,21.27
2022-07-26T11:06:20.772Z,21.43
2022-07-26T11:08:52.767Z,21.49
2022-07-26T11:11:33.525Z,21.58
2022-07-26T11:14:06.903Z,22.02
2022-07-26T11:16:40.084Z,23.18
2022-07-26T11:19:26.230Z,23.50
2022-07-26T11:22:00.988Z,23.46
2022-07-26T11:24:41.380Z,23.64
2022-07-26T11:27:13.924Z,23.92
2022-07-26T11:29:50.197Z,23.97
2022-07-26T11:32:25.442Z,23.64
2022-07-26T11:35:05.770Z,22.89
2022-07-26T11:37:37.724Z,22.53
2022-07-26T11:40:10.472Z,22.33
2022-07-26T11:42:44.412Z,22.17
2022-07-26T11:45:16.487Z,22.17
2022-07-26T11:47:48.467Z,22.29
2022-07-26T11:50:23.107Z,22.49
2022-07-26T11:52:55.530Z,22.66
2022-07-26T11:55:31.626Z,22.87
2022-07-26T11:58:07.318Z,22.87
2022-07-26T12:00:39.438Z,21.95
2022-07-26T12:03:11.426Z,21.83
2022-07-26T12:05:44.054Z,21.68
2022-07-26T12:08:16.188Z,21.51
2022-07-26T12:10:54.877Z,21.48
2022-07-26T12:13:27.022Z,21.66
2022-07-26T12:15:59.515Z,21.55
2022-07-26T12:18:35.393Z,21.30
2022-07-26T12:21:09.471Z,21.13
2022-07-26T12:23:46.964Z,21.03
2022-07-26T12:26:25.452Z,20.78
2022-07-26T12:28:59.888Z,20.82
2022-07-26T12:31:34.301Z,20.79
2022-07-26T12:34:07.437Z,20.73
2022-07-26T12:36:39.536Z,20.64
2022-07-26T12:39:22.885Z,20.86
2022-07-26T12:41:54.932Z,20.87
2022-07-26T12:44:27.122Z,20.93
2022-07-26T12:46:59.161Z,21.02
2022-07-26T12:49:31.421Z,21.18
2022-07-26T12:52:03.445Z,21.41
2022-07-26T12:54:35.530Z,21.55
2022-07-26T12:57:07.905Z,21.57
2022-07-26T12:59:44.793Z,21.75
2022-07-26T13:02:18.948Z,21.79
2022-07-26T13:04:54.368Z,21.96
2022-07-26T13:07:28.785Z,22.49
2022-07-26T13:10:31.192Z,23.42
2022-07-26T13:12:53.518Z,24.03
2022-07-26T13:15:35.912Z,23.95
2022-07-26T13:18:10.076Z,23.73
2022-07-26T13:20:42.122Z,23.09
2022-07-26T13:23:17.897Z,22.60
2022-07-26T13:25:54.125Z,22.63
2022-07-26T13:28:26.716Z,22.54
2022-07-26T13:30:58.867Z,22.45
2022-07-26T13:33:35.137Z,22.32
2022-07-26T13:36:07.327Z,23.01
2022-07-26T13:38:39.477Z,23.50
2022-07-26T13:41:11.555Z,24.03
2022-07-26T13:43:43.756Z,24.13
2022-07-26T13:46:15.760Z,24.87
2022-07-26T13:49:00.691Z,25.34
2022-07-26T13:51:55.438Z,25.77
2022-07-26T13:54:35.745Z,25.95
2022-07-26T13:57:07.868Z,25.62
2022-07-26T13:59:39.970Z,24.95
2022-07-26T14:02:12.510Z,24.41
2022-07-26T14:04:44.621Z,24.72
2022-07-26T14:07:16.580Z,25.66
2022-07-26T14:09:48.557Z,26.28
2022-07-26T14:12:20.823Z,26.87
2022-07-26T14:14:52.841Z,27.22
2022-07-26T14:17:24.933Z,27.21
2022-07-26T14:19:56.968Z,26.56
2022-07-26T14:22:30.365Z,25.66
2022-07-26T14:25:02.345Z,24.79
2022-07-26T14:27:34.381Z,24.58
2022-07-26T14:30:07.301Z,24.18
2022-07-26T14:32:39.417Z,24.44
2022-07-26T14:35:11.466Z,24.09
2022-07-26T14:37:45.578Z,24.10
2022-07-26T14:40:18.413Z,23.92
2022-07-26T14:42:50.387Z,23.51
2022-07-26T14:45:22.444Z,23.17
2022-07-26T14:47:55.035Z,23.22
2022-07-26T14:50:27.343Z,23.10
2022-07-26T14:52:59.320Z,22.95
2022-07-26T14:55:31.556Z,23.30
2022-07-26T14:58:03.712Z,23.82
2022-07-26T15:00:36.284Z,24.08
2022-07-26T15:03:10.390Z,24.11
2022-07-26T15:05:42.393Z,23.86
2022-07-26T15:08:14.541Z,23.45
2022-07-26T15:10:46.563Z,23.10
2022-07-26T15:13:19.462Z,22.87
2022-07-26T15:15:51.454Z,22.58
2022-07-26T15:18:23.685Z,22.63
2022-07-26T15:20:57.783Z,22.66
2022-07-26T15:23:29.984Z,22.35
2022-07-26T15:26:02.188Z,22.43
2022-07-26T15:28:34.203Z,22.25
2022-07-26T15:31:06.248Z,22.31
2022-07-26T15:33:38.338Z,22.28
2022-07-26T15:36:10.377Z,22.19
2022-07-26T15:38:45.300Z,22.34
2022-07-26T15:41:17.318Z,22.31
2022-07-26T15:43:49.365Z,22.32
2022-07-26T15:46:21.875Z,22.52
2022-07-26T15:48:56.297Z,22.71
2022-07-26T15:51:28.430Z,22.54
2022-07-26T15:54:00.518Z,22.54
2022-07-26T15:56:32.564Z,22.42
2022-07-26T15:59:07.267Z,22.45
2022-07-26T16:01:39.479Z,22.28
2022-07-26T16:04:11.991Z,22.04
2022-07-26T16:06:44.542Z,21.98
2022-07-26T16:09:18.519Z,22.06
2022-07-26T16:11:50.926Z,21.91
2022-07-26T16:14:23.048Z,21.87
2022-07-26T16:16:56.460Z,21.74
2022-07-26T16:19:28.964Z,21.86
2022-07-26T16:22:01.069Z,21.76
2022-07-26T16:24:33.543Z,21.81
2022-07-26T16:27:05.588Z,21.82
2022-07-26T16:29:37.617Z,21.59
2022-07-26T16:32:12.874Z,21.72
2022-07-26T16:34:44.998Z,21.59
2022-07-26T16:37:17.142Z,21.41
2022-07-26T16:39:49.241Z,21.24
2022-07-26T16:42:24.677Z,21.05
2022-07-26T16:44:56.693Z,21.22
2022-07-26T16:47:28.773Z,21.11
2022-07-26T16:50:01.034Z,21.14
2022-07-26T16:52:33.106Z,21.35
2022-07-26T16:55:10.647Z,21.50
2022-07-26T16:57:43.176Z,21.42
2022-07-26T17:00:17.733Z,21.40
2022-07-26T17:02:49.863Z,21.23
2022-07-26T17:05:21.952Z,21.25
2022-07-26T17:07:53.929Z,21.23
2022-07-26T17:10:26.340Z,21.11
2022-07-26T17:12:58.376Z,21.05
2022-07-26T17:15:30.472Z,20.91
2022-07-26T17:18:02.498Z,21.00
2022-07-26T17:20:34.485Z,20.92
2022-07-26T17:23:06.632Z,20.82
2022-07-26T17:25:38.623Z,20.70
2022-07-26T17:28:10.733Z,20.39
2022-07-26T17:30:42.801Z,20.46
2022-07-26T17:33:15.182Z,20.36
2022-07-26T17:35:47.234Z,20.35
2022-07-26T17:38:19.302Z,20.32
2022-07-26T17:40:51.450Z,20.42
2022-07-26T17:43:24.519Z,20.51
2022-07-26T17:46:08.737Z,20.51
2022-07-26T17:48:44.013Z,20.50
2022-07-26T17:51:18.156Z,20.50
2022-07-26T17:53:53.264Z,20.27
2022-07-26T17:56:25.931Z,20.34
2022-07-26T17:58:58.113Z,19.99
2022-07-26T18:01:30.617Z,19.94
2022-07-26T18:04:02.683Z,20.01
2022-07-26T18:06:34.740Z,20.01
2022-07-26T18:09:08.065Z,19.97
2022-07-26T18:11:41.311Z,20.09
2022-07-26T18:14:13.411Z,20.13
2022-07-26T18:16:48.414Z,20.13
2022-07-26T18:19:26.595Z,20.06
2022-07-26T18:22:01.743Z,20.05
2022-07-26T18:24:37.736Z,20.05
2022-07-26T18:27:09.744Z,20.05
2022-07-26T18:29:41.900Z,19.93
2022-07-26T18:32:15.343Z,19.93
2022-07-26T18:34:51.791Z,19.82
2022-07-26T18:37:24.677Z,19.70
2022-07-26T18:39:58.012Z,19.63
2022-07-26T18:42:30.296Z,19.48
2022-07-26T18:45:02.629Z,19.52
2022-07-26T18:47:34.696Z,19.49
2022-07-26T18:50:08.137Z,19.35
2022-07-26T18:52:40.368Z,19.40
2022-07-26T18:55:14.862Z,19.37
2022-07-26T18:57:47.093Z,19.29
2022-07-26T19:00:21.236Z,19.34
2022-07-26T19:02:54.518Z,19.27
2022-07-26T19:05:26.810Z,19.22
2022-07-26T19:08:06.701Z,19.21
2022-07-26T19:10:39.059Z,19.15
2022-07-26T19:13:11.088Z,19.04
2022-07-26T19:15:43.190Z,19.07
2022-07-26T19:18:16.436Z,19.06
2022-07-26T19:20:48.536Z,19.05
2022-07-26T19:23:21.082Z,19.02
2022-07-26T19:25:53.159Z,18.96
2022-07-26T19:28:25.171Z,18.84
2022-07-26T19:30:57.247Z,18.83
2022-07-26T19:33:29.341Z,18.84
2022-07-26T19:36:01.347Z,18.81
2022-07-26T19:38:33.596Z,18.86
2022-07-26T19:41:05.887Z,18.88
2022-07-26T19:43:37.918Z,18.88
2022-07-26T19:46:10.112Z,18.84
2022-07-26T19:48:42.508Z,18.83
2022-07-26T19:51:14.697Z,18.75
2022-07-26T19:53:46.797Z,18.72
2022-07-26T19:56:18.862Z,18.62
2022-07-26T19:58:50.982Z,18.57
2022-07-26T20:01:23.795Z,18.53
2022-07-26T20:03:58.872Z,18.55
2022-07-26T20:06:30.898Z,18.39
2022-07-26T20:09:03.015Z,18.33
2022-07-26T20:11:38.918Z,18.33
2022-07-26T20:14:10.983Z,18.15
2022-07-26T20:16:43.121Z,18.08
2022-07-26T20:19:15.279Z,18.11
2022-07-26T20:21:47.336Z,18.17
2022-07-26T20:24:20.300Z,18.18
2022-07-26T20:26:52.489Z,18.20
2022-07-26T20:29:24.731Z,18.17
2022-07-26T20:31:56.789Z,18.20
2022-07-26T20:34:28.996Z,18.14
2022-07-26T20:37:01.007Z,18.19
2022-07-26T20:39:34.082Z,18.23
2022-07-26T20:42:06.837Z,18.19
2022-07-26T20:44:41.604Z,18.09
2022-07-26T20:47:14.489Z,18.06
2022-07-26T20:49:46.570Z,18.01
2022-07-26T20:52:18.750Z,17.95
2022-07-26T20:54:50.827Z,18.02
2022-07-26T20:57:23.677Z,17.96
2022-07-26T20:59:55.766Z,17.98
2022-07-26T21:02:27.916Z,18.04
2022-07-26T21:05:00.101Z,18.01
2022-07-26T21:07:57.179Z,18.04
2022-07-26T21:10:24.199Z,18.02
2022-07-26T21:13:01.169Z,18.00
2022-07-26T21:15:33.433Z,18.01
2022-07-26T21:18:05.917Z,17.98
2022-07-26T21:20:39.450Z,18.00
2022-07-26T21:23:17.574Z,17.99
2022-07-26T21:25:50.021Z,18.03
2022-07-26T21:28:30.228Z,18.03
2022-07-26T21:31:02.296Z,17.96
2022-07-26T21:33:34.280Z,17.95
2022-07-26T21:36:06.721Z,17.94
2022-07-26T21:38:38.682Z,18.00
2022-07-26T21:41:13.654Z,18.02
2022-07-26T21:43:45.756Z,18.04
2022-07-26T21:46:17.869Z,18.05
2022-07-26T21:48:50.119Z,18.00
2022-07-26T21:51:22.289Z,17.93
2022-07-26T21:53:54.338Z,17.92
2022-07-26T21:56:26.975Z,17.88
2022-07-26T21:59:00.214Z,17.88
2022-07-26T22:01:32.303Z,17.81
2022-07-26T22:04:04.814Z,17.77
2022-07-26T22:06:37.950Z,17.77
2022-07-26T22:09:10.409Z,17.67
2022-07-26T22:11:43.040Z,17.66
2022-07-26T22:14:15.043Z,17.65
2022-07-26T22:16:49.758Z,17.66
2022-07-26T22:19:22.032Z,17.62
2022-07-26T22:21:59.718Z,17.58
2022-07-26T22:24:32.257Z,17.54
2022-07-26T22:27:04.449Z,17.54
2022-07-26T22:29:39.900Z,17.52
2022-07-26T22:32:12.513Z,17.44
2022-07-26T22:34:44.629Z,17.47
2022-07-26T22:37:16.777Z,17.45
2022-07-26T22:39:48.833Z,17.37
2022-07-26T22:42:20.955Z,17.33
2022-07-26T22:44:52.972Z,17.32
2022-07-26T22:47:25.120Z,17.34
2022-07-26T22:49:57.139Z,17.36
2022-07-26T22:52:29.281Z,17.35
2022-07-26T22:55:01.490Z,17.26
2022-07-26T22:57:33.559Z,17.23
2022-07-26T23:00:08.703Z,17.22
2022-07-26T23:02:40.930Z,17.18
2022-07-26T23:05:13.561Z,17.08
2022-07-26T23:07:47.224Z,17.08
2022-07-26T23:10:20.262Z,17.07
2022-07-26T23:12:54.143Z,17.04
2022-07-26T23:15:26.349Z,17.04
2022-07-26T23:17:58.514Z,17.07
2022-07-26T23:20:30.565Z,17.10
2022-07-26T23:23:02.655Z,17.14
2022-07-26T23:25:34.831Z,17.23
2022-07-26T23:28:06.851Z,17.23
2022-07-26T23:30:38.889Z,17.26
2022-07-26T23:33:10.947Z,17.24
2022-07-26T23:35:42.979Z,17.26
2022-07-26T23:38:15.021Z,17.30
2022-07-26T23:40:47.004Z,17.31
2022-07-26T23:43:19.032Z,17.28
2022-07-26T23:45:51.155Z,17.26
2022-07-26T23:48:23.148Z,17.25
2022-07-26T23:50:55.096Z,17.21
2022-07-26T23:53:27.405Z,17.15
2022-07-26T23:55:59.521Z,17.18
2022-07-26T23:58:31.530Z,17.11
